createdAt,value
2023-03-17T00:05:37.879Z,15.08
2023-03-17T00:11:21.827Z,14.97
2023-03-17T00:17:05.888Z,14.9
2023-03-17T00:22:50.117Z,14.86
2023-03-17T00:28:34.732Z,14.88
2023-03-17T00:34:18.864Z,14.85
2023-03-17T00:40:02.681Z,14.8
2023-03-17T00:45:46.335Z,14.77
2023-03-17T00:51:30.223Z,14.77
2023-03-17T00:57:13.982Z,14.75
2023-03-17T01:02:57.745Z,14.71
2023-03-17T01:08:42.875Z,14.66
2023-03-17T01:14:26.548Z,14.62
2023-03-17T01:20:13.908Z,14.58
2023-03-17T01:25:57.754Z,14.56
2023-03-17T01:31:43.636Z,14.56
2023-03-17T01:37:27.607Z,14.54
2023-03-17T01:43:21.048Z,14.54
2023-03-17T01:49:12.072Z,14.54
2023-03-17T01:54:57.770Z,14.54
2023-03-17T02:00:41.670Z,14.54
2023-03-17T02:06:26.110Z,14.5
2023-03-17T02:12:10.584Z,14.46
2023-03-17T02:17:54.381Z,14.45
2023-03-17T02:23:38.119Z,14.41
2023-03-17T02:29:23.069Z,14.42
2023-03-17T02:35:07.670Z,14.4
2023-03-17T02:40:51.333Z,14.36
2023-03-17T02:46:35.178Z,14.28
2023-03-17T02:52:18.702Z,14.26
2023-03-17T02:58:03.441Z,14.24
2023-03-17T03:03:47.304Z,14.2
2023-03-17T03:09:31.233Z,14.15
2023-03-17T03:15:15.826Z,14.12
2023-03-17T03:20:59.641Z,14.08
2023-03-17T03:26:43.437Z,14.08
2023-03-17T03:32:27.303Z,14.03
2023-03-17T03:38:11.612Z,13.99
2023-03-17T03:43:55.612Z,13.96
2023-03-17T03:49:39.486Z,13.93
2023-03-17T03:55:23.370Z,13.99
2023-03-17T04:01:08.746Z,13.99
2023-03-17T04:06:52.489Z,13.95
2023-03-17T04:12:36.445Z,13.91
2023-03-17T04:18:20.360Z,13.89
2023-03-17T04:24:05.325Z,13.86
2023-03-17T04:29:49.021Z,13.86
2023-03-17T04:35:32.946Z,13.91
2023-03-17T04:41:16.847Z,13.89
2023-03-17T04:47:00.655Z,13.9
2023-03-17T04:52:44.417Z,13.87
2023-03-17T04:58:30.977Z,13.93
2023-03-17T05:04:25.331Z,13.89
2023-03-17T05:10:14.098Z,13.91
2023-03-17T05:15:57.900Z,13.9
2023-03-17T05:21:41.763Z,13.88
2023-03-17T05:27:25.569Z,13.9
2023-03-17T05:33:09.328Z,13.85
2023-03-17T05:38:53.055Z,13.84
2023-03-17T05:44:36.810Z,13.79
2023-03-17T05:50:20.564Z,13.79
2023-03-17T05:56:04.452Z,13.82
2023-03-17T06:01:48.209Z,13.84
2023-03-17T06:07:41.105Z,13.83
2023-03-17T06:13:35.727Z,13.89
2023-03-17T06:19:19.586Z,13.92
2023-03-17T06:25:03.651Z,13.93
2023-03-17T06:30:47.212Z,13.98
2023-03-17T06:36:31.088Z,14
2023-03-17T06:42:16.167Z,14.03
2023-03-17T06:48:00.006Z,14.09
2023-03-17T06:53:43.647Z,14.17
2023-03-17T06:59:27.563Z,14.24
2023-03-17T07:05:11.599Z,14.33
2023-03-17T07:10:57.827Z,14.41
2023-03-17T07:16:41.735Z,14.48
2023-03-17T07:22:25.999Z,14.55
2023-03-17T07:28:09.706Z,14.64
2023-03-17T07:33:54.117Z,14.72
2023-03-17T07:39:40.246Z,14.83
2023-03-17T07:45:24.154Z,14.96
2023-03-17T07:51:10.368Z,15.11
2023-03-17T07:56:54.463Z,15.3
2023-03-17T08:02:38.367Z,15.47
2023-03-17T08:08:22.394Z,15.63
2023-03-17T08:14:06.488Z,15.68
2023-03-17T08:19:50.141Z,15.66
2023-03-17T08:25:34.302Z,15.69
2023-03-17T08:31:18.555Z,15.83
2023-03-17T08:37:03.599Z,15.93
2023-03-17T08:42:48.826Z,16.02
2023-03-17T08:48:32.808Z,16.14
2023-03-17T08:54:16.627Z,16.45
2023-03-17T09:00:00.432Z,16.55
2023-03-17T09:05:44.106Z,16.68
2023-03-17T09:11:29.372Z,16.74
2023-03-17T09:17:13.730Z,16.89
2023-03-17T09:22:57.328Z,17.08
2023-03-17T09:28:43.109Z,17.14
2023-03-17T09:34:26.995Z,17.2
2023-03-17T09:40:13.696Z,17.59
2023-03-17T09:46:00.671Z,17.9
2023-03-17T09:51:45.087Z,18.04
2023-03-17T09:57:32.075Z,18.42
2023-03-17T10:03:16.016Z,18.49
2023-03-17T10:09:01.378Z,18.65
2023-03-17T10:14:51.255Z,18.92
2023-03-17T10:20:38.640Z,19.18
2023-03-17T10:26:26.926Z,19.34
2023-03-17T10:32:12.114Z,19.69
2023-03-17T10:38:08.136Z,19.91
2023-03-17T10:43:57.535Z,20.22
2023-03-17T10:49:43.688Z,20.25
2023-03-17T10:55:28.335Z,20.49
2023-03-17T11:01:15.876Z,20.49
2023-03-17T11:07:05.003Z,20.56
2023-03-17T11:12:53.672Z,20.82
2023-03-17T11:18:38.502Z,21.02
2023-03-17T11:30:30.087Z,21.35
2023-03-17T11:36:20.527Z,21.55
2023-03-17T11:42:11.313Z,21.56
2023-03-17T11:48:03.160Z,21.52
2023-03-17T11:53:59.436Z,21.55
2023-03-17T11:59:47.212Z,21.73
2023-03-17T12:05:34.280Z,21.87
2023-03-17T12:11:20.630Z,22.25
2023-03-17T12:17:09.184Z,22.41
2023-03-17T12:22:56.668Z,22.41
2023-03-17T12:28:43.979Z,22.41
2023-03-17T12:34:31.136Z,22.33
2023-03-17T12:40:17.640Z,22.27
2023-03-17T12:46:10.965Z,22.38
2023-03-17T12:52:01.728Z,22.43
2023-03-17T12:57:46.819Z,22.48
2023-03-17T13:03:31.934Z,22.46
2023-03-17T13:09:34.201Z,22.42
2023-03-17T13:15:26.366Z,22.48
2023-03-17T13:21:14.623Z,22.31
2023-03-17T13:27:00.359Z,22.18
2023-03-17T13:32:44.919Z,22.14
2023-03-17T13:38:40.766Z,22.29
2023-03-17T13:44:41.034Z,22.3
2023-03-17T13:50:31.073Z,22.25
2023-03-17T13:56:22.135Z,22.19
2023-03-17T14:02:11.959Z,22.13
2023-03-17T14:07:57.990Z,22.09
2023-03-17T14:13:46.623Z,22.11
2023-03-17T14:19:30.308Z,22.14
2023-03-17T14:25:18.981Z,22.12
2023-03-17T14:31:05.121Z,22.06
2023-03-17T14:36:50.784Z,21.98
2023-03-17T14:42:36.572Z,21.96
2023-03-17T14:48:22.566Z,22
2023-03-17T14:54:11.334Z,22.07
2023-03-17T15:00:01.541Z,22.12
2023-03-17T15:05:46.259Z,22.15
2023-03-17T15:11:34.972Z,22.07
2023-03-17T15:17:20.004Z,22.03
2023-03-17T15:23:04.985Z,21.96
2023-03-17T15:28:49.661Z,21.78
2023-03-17T15:34:33.443Z,21.56
2023-03-17T15:40:17.513Z,21.41
2023-03-17T15:46:02.980Z,21.26
2023-03-17T15:51:46.922Z,21.18
2023-03-17T15:57:30.667Z,21.12
2023-03-17T16:03:18.707Z,20.99
2023-03-17T16:09:02.519Z,20.86
2023-03-17T16:14:46.035Z,20.7
2023-03-17T16:20:31.796Z,20.58
2023-03-17T16:26:24.037Z,20.49
2023-03-17T16:32:09.407Z,20.37
2023-03-17T16:37:53.425Z,20.24
2023-03-17T16:43:37.275Z,20.2
2023-03-17T16:49:22.306Z,20.07
2023-03-17T16:55:06.404Z,20
2023-03-17T17:00:50.982Z,19.86
2023-03-17T17:06:34.738Z,19.73
2023-03-17T17:12:18.368Z,19.64
2023-03-17T17:18:03.419Z,19.54
2023-03-17T17:23:47.052Z,19.42
2023-03-17T17:29:34.279Z,19.24
2023-03-17T17:35:19.266Z,19.1
2023-03-17T17:41:03.328Z,19.01
2023-03-17T17:46:48.327Z,19.23
2023-03-17T17:52:32.254Z,19.26
2023-03-17T17:58:17.303Z,19.18
2023-03-17T18:04:11.981Z,18.97
2023-03-17T18:10:07.927Z,18.96
2023-03-17T18:16:03.397Z,18.94
2023-03-17T18:21:54.200Z,18.9
2023-03-17T18:27:39.496Z,18.86
2023-03-17T18:33:24.509Z,18.8
2023-03-17T18:39:10.817Z,18.75
2023-03-17T18:44:58.913Z,18.71
2023-03-17T18:50:55.906Z,18.67
2023-03-17T18:56:49.032Z,18.63
2023-03-17T19:02:39.002Z,18.6
2023-03-17T19:08:24.266Z,18.54
2023-03-17T19:14:10.547Z,18.48
2023-03-17T19:20:02.639Z,18.43
2023-03-17T19:25:52.761Z,18.4
2023-03-17T19:31:38.254Z,18.35
2023-03-17T19:37:29.092Z,18.28
2023-03-17T19:43:20.144Z,18.23
2023-03-17T19:49:22.595Z,18.21
2023-03-17T19:55:21.734Z,18.19
2023-03-17T20:01:08.867Z,18.13
2023-03-17T20:07:02.612Z,18.07
2023-03-17T20:12:47.041Z,18.04
2023-03-17T20:18:38.961Z,18
2023-03-17T20:24:26.520Z,17.96
2023-03-17T20:30:17.050Z,17.9
2023-03-17T20:36:12.038Z,17.87
2023-03-17T20:42:13.861Z,17.82
2023-03-17T20:48:12.938Z,17.83
2023-03-17T20:53:56.971Z,17.78
2023-03-17T20:59:41.405Z,17.77
2023-03-17T21:05:31.630Z,17.71
2023-03-17T21:11:22.182Z,17.86
2023-03-17T21:17:06.319Z,18.01
2023-03-17T21:22:52.498Z,18.05
2023-03-17T21:28:39.076Z,17.83
2023-03-17T21:34:31.576Z,17.69
2023-03-17T21:40:18.560Z,17.55
2023-03-17T21:46:11.335Z,17.53
2023-03-17T21:51:59.694Z,17.48
2023-03-17T21:57:46.923Z,17.44
2023-03-17T22:03:31.973Z,17.39
2023-03-17T22:09:35.306Z,17.35
2023-03-17T22:15:26.247Z,17.34
2023-03-17T22:21:10.929Z,17.32
2023-03-17T22:27:00.318Z,17.29
2023-03-17T22:32:47.613Z,17.25
2023-03-17T22:38:40.287Z,17.19
2023-03-17T22:44:30.767Z,17.16
2023-03-17T22:50:26.029Z,17.2
2023-03-17T22:56:18.620Z,17.17
2023-03-17T23:02:03.144Z,17.15
2023-03-17T23:07:50.574Z,17.15
2023-03-17T23:13:39.122Z,17.1
2023-03-17T23:19:23.841Z,17.12
2023-03-17T23:25:21.753Z,17.13
2023-03-17T23:31:21.967Z,17.18
2023-03-17T23:37:13.642Z,17.12
2023-03-17T23:43:06.990Z,17.06
2023-03-17T23:48:55.923Z,16.99
2023-03-17T23:54:45.906Z,16.96
